sensor_id;sensor_type;location;lat;lon;timestamp;P1;durP1;ratioP1;P2;durP2;ratioP2
10315;SDS011;5203;48.976;8.306;2022-07-06T00:01:39;4.55;;;4.25;;
10315;SDS011;5203;48.976;8.306;2022-07-06T00:04:05;4.72;;;4.43;;
10315;SDS011;5203;48.976;8.306;2022-07-06T00:06:31;4.95;;;4.55;;
10315;SDS011;5203;48.976;8.306;2022-07-06T00:08:57;6.03;;;4.63;;
10315;SDS011;5203;48.976;8.306;2022-07-06T00:11:23;4.65;;;4.35;;
10315;SDS011;5203;48.976;8.306;2022-07-06T00:13:49;4.75;;;4.45;;
10315;SDS011;5203;48.976;8.306;2022-07-06T00:16:16;4.90;;;4.50;;
10315;SDS011;5203;48.976;8.306;2022-07-06T00:18:42;4.80;;;4.50;;
10315;SDS011;5203;48.976;8.306;2022-07-06T00:21:08;4.72;;;4.43;;
10315;SDS011;5203;48.976;8.306;2022-07-06T00:23:34;5.15;;;4.85;;
10315;SDS011;5203;48.976;8.306;2022-07-06T00:26:00;5.35;;;4.95;;
10315;SDS011;5203;48.976;8.306;2022-07-06T00:28:26;5.30;;;5.00;;
10315;SDS011;5203;48.976;8.306;2022-07-06T00:30:52;5.75;;;5.35;;
10315;SDS011;5203;48.976;8.306;2022-07-06T00:33:18;4.97;;;4.65;;
10315;SDS011;5203;48.976;8.306;2022-07-06T00:35:44;5.15;;;4.85;;
10315;SDS011;5203;48.976;8.306;2022-07-06T00:38:10;5.38;;;4.97;;
10315;SDS011;5203;48.976;8.306;2022-07-06T00:40:35;5.20;;;4.80;;
10315;SDS011;5203;48.976;8.306;2022-07-06T00:43:01;5.93;;;5.43;;
10315;SDS011;5203;48.976;8.306;2022-07-06T00:45:27;5.72;;;5.10;;
10315;SDS011;5203;48.976;8.306;2022-07-06T00:47:53;5.78;;;5.30;;
10315;SDS011;5203;48.976;8.306;2022-07-06T00:50:19;5.32;;;4.97;;
10315;SDS011;5203;48.976;8.306;2022-07-06T00:52:50;5.30;;;4.90;;
10315;SDS011;5203;48.976;8.306;2022-07-06T00:55:29;6.63;;;5.90;;
10315;SDS011;5203;48.976;8.306;2022-07-06T00:57:56;4.95;;;4.75;;
10315;SDS011;5203;48.976;8.306;2022-07-06T01:00:23;5.13;;;4.82;;
10315;SDS011;5203;48.976;8.306;2022-07-06T01:02:50;6.07;;;5.68;;
10315;SDS011;5203;48.976;8.306;2022-07-06T01:05:17;5.22;;;4.82;;
10315;SDS011;5203;48.976;8.306;2022-07-06T01:07:44;5.18;;;4.95;;
10315;SDS011;5203;48.976;8.306;2022-07-06T01:10:13;5.20;;;4.88;;
10315;SDS011;5203;48.976;8.306;2022-07-06T01:12:41;6.25;;;5.78;;
10315;SDS011;5203;48.976;8.306;2022-07-06T01:15:10;5.85;;;5.45;;
10315;SDS011;5203;48.976;8.306;2022-07-06T01:17:40;6.22;;;5.82;;
10315;SDS011;5203;48.976;8.306;2022-07-06T01:20:10;5.70;;;5.30;;
10315;SDS011;5203;48.976;8.306;2022-07-06T01:22:36;6.28;;;5.78;;
10315;SDS011;5203;48.976;8.306;2022-07-06T01:25:03;6.10;;;5.55;;
10315;SDS011;5203;48.976;8.306;2022-07-06T01:27:30;6.07;;;5.65;;
10315;SDS011;5203;48.976;8.306;2022-07-06T01:29:56;5.70;;;5.30;;
10315;SDS011;5203;48.976;8.306;2022-07-06T01:32:21;5.93;;;5.53;;
10315;SDS011;5203;48.976;8.306;2022-07-06T01:34:47;6.30;;;5.80;;
10315;SDS011;5203;48.976;8.306;2022-07-06T01:37:13;6.20;;;5.80;;
10315;SDS011;5203;48.976;8.306;2022-07-06T01:39:38;5.80;;;5.28;;
10315;SDS011;5203;48.976;8.306;2022-07-06T01:42:05;5.78;;;5.38;;
10315;SDS011;5203;48.976;8.306;2022-07-06T01:44:31;6.00;;;5.57;;
10315;SDS011;5203;48.976;8.306;2022-07-06T01:46:56;7.03;;;6.35;;
10315;SDS011;5203;48.976;8.306;2022-07-06T01:49:22;5.95;;;5.65;;
10315;SDS011;5203;48.976;8.306;2022-07-06T01:51:48;6.32;;;5.78;;
10315;SDS011;5203;48.976;8.306;2022-07-06T01:54:13;5.85;;;5.43;;
10315;SDS011;5203;48.976;8.306;2022-07-06T01:56:39;6.60;;;6.05;;
10315;SDS011;5203;48.976;8.306;2022-07-06T01:59:05;5.90;;;5.40;;
10315;SDS011;5203;48.976;8.306;2022-07-06T02:01:30;6.60;;;6.20;;
10315;SDS011;5203;48.976;8.306;2022-07-06T02:03:56;5.93;;;5.57;;
10315;SDS011;5203;48.976;8.306;2022-07-06T02:06:22;6.65;;;6.10;;
10315;SDS011;5203;48.976;8.306;2022-07-06T02:08:48;5.78;;;5.35;;
10315;SDS011;5203;48.976;8.306;2022-07-06T02:11:13;6.28;;;5.97;;
10315;SDS011;5203;48.976;8.306;2022-07-06T02:13:39;6.47;;;5.97;;
10315;SDS011;5203;48.976;8.306;2022-07-06T02:16:05;7.05;;;6.43;;
10315;SDS011;5203;48.976;8.306;2022-07-06T02:18:31;6.82;;;5.80;;
10315;SDS011;5203;48.976;8.306;2022-07-06T02:20:57;6.35;;;5.63;;
10315;SDS011;5203;48.976;8.306;2022-07-06T02:23:22;6.25;;;5.85;;
10315;SDS011;5203;48.976;8.306;2022-07-06T02:25:48;6.28;;;5.97;;
10315;SDS011;5203;48.976;8.306;2022-07-06T02:28:14;6.25;;;5.95;;
10315;SDS011;5203;48.976;8.306;2022-07-06T02:30:40;6.07;;;5.70;;
10315;SDS011;5203;48.976;8.306;2022-07-06T02:33:05;6.78;;;6.38;;
10315;SDS011;5203;48.976;8.306;2022-07-06T02:35:31;6.50;;;6.00;;
10315;SDS011;5203;48.976;8.306;2022-07-06T02:37:57;6.63;;;6.05;;
10315;SDS011;5203;48.976;8.306;2022-07-06T02:40:23;6.65;;;6.03;;
10315;SDS011;5203;48.976;8.306;2022-07-06T02:42:48;6.50;;;6.10;;
10315;SDS011;5203;48.976;8.306;2022-07-06T02:45:14;6.57;;;6.13;;
10315;SDS011;5203;48.976;8.306;2022-07-06T02:47:40;6.30;;;5.90;;
10315;SDS011;5203;48.976;8.306;2022-07-06T02:50:06;6.70;;;6.20;;
10315;SDS011;5203;48.976;8.306;2022-07-06T02:52:32;6.50;;;6.00;;
10315;SDS011;5203;48.976;8.306;2022-07-06T02:54:57;6.32;;;6.00;;
10315;SDS011;5203;48.976;8.306;2022-07-06T02:57:23;6.40;;;5.90;;
10315;SDS011;5203;48.976;8.306;2022-07-06T02:59:49;6.63;;;6.22;;
10315;SDS011;5203;48.976;8.306;2022-07-06T03:02:15;6.32;;;6.00;;
10315;SDS011;5203;48.976;8.306;2022-07-06T03:04:41;5.63;;;5.32;;
10315;SDS011;5203;48.976;8.306;2022-07-06T03:07:07;5.95;;;5.45;;
10315;SDS011;5203;48.976;8.306;2022-07-06T03:09:33;5.95;;;5.60;;
10315;SDS011;5203;48.976;8.306;2022-07-06T03:11:59;6.00;;;5.50;;
10315;SDS011;5203;48.976;8.306;2022-07-06T03:14:25;5.70;;;5.32;;
10315;SDS011;5203;48.976;8.306;2022-07-06T03:16:51;6.13;;;5.50;;
10315;SDS011;5203;48.976;8.306;2022-07-06T03:19:18;5.47;;;5.18;;
10315;SDS011;5203;48.976;8.306;2022-07-06T03:21:44;6.15;;;4.80;;
10315;SDS011;5203;48.976;8.306;2022-07-06T03:24:10;5.07;;;4.78;;
10315;SDS011;5203;48.976;8.306;2022-07-06T03:26:36;5.32;;;5.03;;
10315;SDS011;5203;48.976;8.306;2022-07-06T03:29:02;5.22;;;4.82;;
10315;SDS011;5203;48.976;8.306;2022-07-06T03:31:28;6.75;;;4.80;;
10315;SDS011;5203;48.976;8.306;2022-07-06T03:33:54;5.57;;;5.05;;
10315;SDS011;5203;48.976;8.306;2022-07-06T03:36:19;5.30;;;5.00;;
10315;SDS011;5203;48.976;8.306;2022-07-06T03:38:45;5.22;;;4.72;;
10315;SDS011;5203;48.976;8.306;2022-07-06T03:41:11;5.55;;;5.15;;
10315;SDS011;5203;48.976;8.306;2022-07-06T03:43:37;5.10;;;4.80;;
10315;SDS011;5203;48.976;8.306;2022-07-06T03:46:03;5.85;;;4.97;;
10315;SDS011;5203;48.976;8.306;2022-07-06T03:48:29;5.50;;;5.07;;
10315;SDS011;5203;48.976;8.306;2022-07-06T03:50:55;5.35;;;4.95;;
10315;SDS011;5203;48.976;8.306;2022-07-06T03:53:20;4.93;;;4.53;;
10315;SDS011;5203;48.976;8.306;2022-07-06T03:55:46;4.93;;;4.53;;
10315;SDS011;5203;48.976;8.306;2022-07-06T03:58:32;4.72;;;4.43;;
10315;SDS011;5203;48.976;8.306;2022-07-06T04:00:58;4.90;;;4.50;;
10315;SDS011;5203;48.976;8.306;2022-07-06T04:03:24;5.18;;;4.88;;
10315;SDS011;5203;48.976;8.306;2022-07-06T04:05:50;5.40;;;4.97;;
10315;SDS011;5203;48.976;8.306;2022-07-06T04:08:16;5.40;;;4.90;;
10315;SDS011;5203;48.976;8.306;2022-07-06T04:10:42;5.15;;;4.85;;
10315;SDS011;5203;48.976;8.306;2022-07-06T04:13:08;5.40;;;5.00;;
10315;SDS011;5203;48.976;8.306;2022-07-06T04:15:33;5.80;;;5.22;;
10315;SDS011;5203;48.976;8.306;2022-07-06T04:18:02;5.38;;;4.65;;
10315;SDS011;5203;48.976;8.306;2022-07-06T04:20:28;5.20;;;4.75;;
10315;SDS011;5203;48.976;8.306;2022-07-06T04:22:54;4.72;;;4.38;;
10315;SDS011;5203;48.976;8.306;2022-07-06T04:25:20;5.00;;;4.55;;
10315;SDS011;5203;48.976;8.306;2022-07-06T04:27:46;5.03;;;4.63;;
10315;SDS011;5203;48.976;8.306;2022-07-06T04:30:11;5.80;;;4.50;;
10315;SDS011;5203;48.976;8.306;2022-07-06T04:32:38;5.63;;;5.13;;
10315;SDS011;5203;48.976;8.306;2022-07-06T04:35:04;4.78;;;4.47;;
10315;SDS011;5203;48.976;8.306;2022-07-06T04:37:31;5.28;;;4.60;;
10315;SDS011;5203;48.976;8.306;2022-07-06T04:39:56;5.05;;;4.65;;
10315;SDS011;5203;48.976;8.306;2022-07-06T04:42:22;5.78;;;4.32;;
10315;SDS011;5203;48.976;8.306;2022-07-06T04:44:48;5.00;;;4.60;;
10315;SDS011;5203;48.976;8.306;2022-07-06T04:47:16;4.68;;;4.38;;
10315;SDS011;5203;48.976;8.306;2022-07-06T04:49:43;5.32;;;4.05;;
10315;SDS011;5203;48.976;8.306;2022-07-06T04:52:09;6.05;;;4.53;;
10315;SDS011;5203;48.976;8.306;2022-07-06T04:54:34;4.65;;;4.25;;
10315;SDS011;5203;48.976;8.306;2022-07-06T04:57:00;5.20;;;4.70;;
10315;SDS011;5203;48.976;8.306;2022-07-06T04:59:26;4.47;;;4.18;;
10315;SDS011;5203;48.976;8.306;2022-07-06T05:01:52;4.47;;;4.07;;
10315;SDS011;5203;48.976;8.306;2022-07-06T05:04:18;4.43;;;4.13;;
10315;SDS011;5203;48.976;8.306;2022-07-06T05:06:44;4.68;;;4.38;;
10315;SDS011;5203;48.976;8.306;2022-07-06T05:09:11;6.25;;;4.10;;
10315;SDS011;5203;48.976;8.306;2022-07-06T05:11:38;4.57;;;4.20;;
10315;SDS011;5203;48.976;8.306;2022-07-06T05:14:04;5.32;;;4.20;;
10315;SDS011;5203;48.976;8.306;2022-07-06T05:16:30;4.20;;;3.88;;
10315;SDS011;5203;48.976;8.306;2022-07-06T05:18:56;4.35;;;4.05;;
10315;SDS011;5203;48.976;8.306;2022-07-06T05:21:22;7.38;;;4.72;;
10315;SDS011;5203;48.976;8.306;2022-07-06T05:23:48;4.40;;;4.20;;
10315;SDS011;5203;48.976;8.306;2022-07-06T05:26:14;4.60;;;4.28;;
10315;SDS011;5203;48.976;8.306;2022-07-06T05:28:40;5.22;;;4.78;;
10315;SDS011;5203;48.976;8.306;2022-07-06T05:31:06;5.10;;;4.70;;
10315;SDS011;5203;48.976;8.306;2022-07-06T05:33:31;5.43;;;5.03;;
10315;SDS011;5203;48.976;8.306;2022-07-06T05:35:57;5.85;;;5.03;;
10315;SDS011;5203;48.976;8.306;2022-07-06T05:38:23;5.30;;;4.80;;
10315;SDS011;5203;48.976;8.306;2022-07-06T05:40:49;5.65;;;5.20;;
10315;SDS011;5203;48.976;8.306;2022-07-06T05:43:15;5.38;;;4.97;;
10315;SDS011;5203;48.976;8.306;2022-07-06T05:45:41;5.53;;;5.20;;
10315;SDS011;5203;48.976;8.306;2022-07-06T05:48:07;5.47;;;4.97;;
10315;SDS011;5203;48.976;8.306;2022-07-06T05:50:51;5.57;;;4.90;;
10315;SDS011;5203;48.976;8.306;2022-07-06T05:53:17;5.43;;;5.03;;
10315;SDS011;5203;48.976;8.306;2022-07-06T05:55:42;5.90;;;5.47;;
10315;SDS011;5203;48.976;8.306;2022-07-06T05:58:08;7.75;;;5.15;;
10315;SDS011;5203;48.976;8.306;2022-07-06T06:00:34;7.20;;;5.15;;
10315;SDS011;5203;48.976;8.306;2022-07-06T06:03:00;5.40;;;4.90;;
10315;SDS011;5203;48.976;8.306;2022-07-06T06:05:26;5.75;;;5.25;;
10315;SDS011;5203;48.976;8.306;2022-07-06T06:07:51;5.68;;;5.03;;
10315;SDS011;5203;48.976;8.306;2022-07-06T06:10:18;6.18;;;5.43;;
10315;SDS011;5203;48.976;8.306;2022-07-06T06:12:45;5.90;;;5.40;;
10315;SDS011;5203;48.976;8.306;2022-07-06T06:15:11;5.45;;;5.05;;
10315;SDS011;5203;48.976;8.306;2022-07-06T06:17:37;5.45;;;4.65;;
10315;SDS011;5203;48.976;8.306;2022-07-06T06:20:04;5.03;;;4.65;;
10315;SDS011;5203;48.976;8.306;2022-07-06T06:22:43;6.43;;;4.97;;
10315;SDS011;5203;48.976;8.306;2022-07-06T06:25:10;5.15;;;4.63;;
10315;SDS011;5203;48.976;8.306;2022-07-06T06:27:36;6.15;;;4.90;;
10315;SDS011;5203;48.976;8.306;2022-07-06T06:30:02;6.60;;;5.07;;
10315;SDS011;5203;48.976;8.306;2022-07-06T06:32:29;5.40;;;4.90;;
10315;SDS011;5203;48.976;8.306;2022-07-06T06:34:54;5.35;;;4.82;;
10315;SDS011;5203;48.976;8.306;2022-07-06T06:37:20;5.50;;;5.00;;
10315;SDS011;5203;48.976;8.306;2022-07-06T06:39:46;7.03;;;5.15;;
10315;SDS011;5203;48.976;8.306;2022-07-06T06:42:12;5.32;;;4.93;;
10315;SDS011;5203;48.976;8.306;2022-07-06T06:44:37;5.38;;;4.82;;
10315;SDS011;5203;48.976;8.306;2022-07-06T06:47:03;5.13;;;4.72;;
10315;SDS011;5203;48.976;8.306;2022-07-06T06:49:29;7.68;;;6.93;;
10315;SDS011;5203;48.976;8.306;2022-07-06T06:51:55;6.68;;;5.32;;
10315;SDS011;5203;48.976;8.306;2022-07-06T06:54:20;6.65;;;4.93;;
10315;SDS011;5203;48.976;8.306;2022-07-06T06:56:46;4.68;;;4.28;;
10315;SDS011;5203;48.976;8.306;2022-07-06T06:59:11;6.47;;;4.95;;
10315;SDS011;5203;48.976;8.306;2022-07-06T07:01:37;6.65;;;4.75;;
10315;SDS011;5203;48.976;8.306;2022-07-06T07:04:03;5.32;;;4.72;;
10315;SDS011;5203;48.976;8.306;2022-07-06T07:06:29;8.02;;;5.07;;
10315;SDS011;5203;48.976;8.306;2022-07-06T07:08:55;5.22;;;4.72;;
10315;SDS011;5203;48.976;8.306;2022-07-06T07:11:21;4.70;;;4.38;;
10315;SDS011;5203;48.976;8.306;2022-07-06T07:13:47;5.35;;;4.70;;
10315;SDS011;5203;48.976;8.306;2022-07-06T07:16:12;4.70;;;4.40;;
10315;SDS011;5203;48.976;8.306;2022-07-06T07:18:38;4.90;;;4.53;;
10315;SDS011;5203;48.976;8.306;2022-07-06T07:21:04;4.97;;;4.57;;
10315;SDS011;5203;48.976;8.306;2022-07-06T07:23:30;8.93;;;4.50;;
10315;SDS011;5203;48.976;8.306;2022-07-06T07:25:55;4.50;;;4.10;;
10315;SDS011;5203;48.976;8.306;2022-07-06T07:28:21;5.35;;;4.85;;
10315;SDS011;5203;48.976;8.306;2022-07-06T07:30:47;5.35;;;4.85;;
10315;SDS011;5203;48.976;8.306;2022-07-06T07:33:13;4.55;;;3.90;;
10315;SDS011;5203;48.976;8.306;2022-07-06T07:35:38;4.53;;;4.13;;
10315;SDS011;5203;48.976;8.306;2022-07-06T07:38:04;6.38;;;4.35;;
10315;SDS011;5203;48.976;8.306;2022-07-06T07:40:30;4.63;;;4.32;;
10315;SDS011;5203;48.976;8.306;2022-07-06T07:42:56;4.75;;;4.32;;
10315;SDS011;5203;48.976;8.306;2022-07-06T07:45:21;5.13;;;4.72;;
10315;SDS011;5203;48.976;8.306;2022-07-06T07:47:48;5.93;;;4.63;;
10315;SDS011;5203;48.976;8.306;2022-07-06T07:50:13;5.05;;;4.65;;
10315;SDS011;5203;48.976;8.306;2022-07-06T07:52:39;5.90;;;4.50;;
10315;SDS011;5203;48.976;8.306;2022-07-06T07:55:05;7.80;;;4.50;;
10315;SDS011;5203;48.976;8.306;2022-07-06T07:57:32;5.63;;;4.35;;
10315;SDS011;5203;48.976;8.306;2022-07-06T07:59:57;4.47;;;4.10;;
10315;SDS011;5203;48.976;8.306;2022-07-06T08:02:23;4.40;;;4.00;;
10315;SDS011;5203;48.976;8.306;2022-07-06T08:04:49;4.97;;;3.90;;
10315;SDS011;5203;48.976;8.306;2022-07-06T08:07:14;4.35;;;3.95;;
10315;SDS011;5203;48.976;8.306;2022-07-06T08:09:40;5.10;;;4.22;;
10315;SDS011;5203;48.976;8.306;2022-07-06T08:12:06;5.00;;;4.40;;
10315;SDS011;5203;48.976;8.306;2022-07-06T08:14:32;4.88;;;4.40;;
10315;SDS011;5203;48.976;8.306;2022-07-06T08:16:58;5.88;;;4.40;;
10315;SDS011;5203;48.976;8.306;2022-07-06T08:19:23;4.38;;;4.05;;
10315;SDS011;5203;48.976;8.306;2022-07-06T08:21:49;4.53;;;4.10;;
10315;SDS011;5203;48.976;8.306;2022-07-06T08:24:15;4.45;;;4.13;;
10315;SDS011;5203;48.976;8.306;2022-07-06T08:26:41;4.78;;;4.35;;
10315;SDS011;5203;48.976;8.306;2022-07-06T08:29:06;4.93;;;4.00;;
10315;SDS011;5203;48.976;8.306;2022-07-06T08:31:32;5.03;;;4.32;;
10315;SDS011;5203;48.976;8.306;2022-07-06T08:33:59;4.55;;;4.07;;
10315;SDS011;5203;48.976;8.306;2022-07-06T08:36:26;4.43;;;3.92;;
10315;SDS011;5203;48.976;8.306;2022-07-06T08:38:52;4.38;;;3.97;;
10315;SDS011;5203;48.976;8.306;2022-07-06T08:41:18;5.20;;;4.68;;
10315;SDS011;5203;48.976;8.306;2022-07-06T08:43:48;4.68;;;4.38;;
10315;SDS011;5203;48.976;8.306;2022-07-06T08:46:15;4.80;;;4.40;;
10315;SDS011;5203;48.976;8.306;2022-07-06T08:48:41;6.38;;;4.68;;
10315;SDS011;5203;48.976;8.306;2022-07-06T08:51:07;5.10;;;4.72;;
10315;SDS011;5203;48.976;8.306;2022-07-06T08:53:33;6.15;;;4.75;;
10315;SDS011;5203;48.976;8.306;2022-07-06T08:55:59;5.15;;;4.78;;
10315;SDS011;5203;48.976;8.306;2022-07-06T08:58:26;5.03;;;4.57;;
10315;SDS011;5203;48.976;8.306;2022-07-06T09:00:54;5.55;;;5.10;;
10315;SDS011;5203;48.976;8.306;2022-07-06T09:03:20;6.03;;;5.53;;
10315;SDS011;5203;48.976;8.306;2022-07-06T09:05:46;5.60;;;4.95;;
10315;SDS011;5203;48.976;8.306;2022-07-06T09:08:12;5.97;;;5.38;;
10315;SDS011;5203;48.976;8.306;2022-07-06T09:10:38;8.15;;;5.07;;
10315;SDS011;5203;48.976;8.306;2022-07-06T09:13:04;5.18;;;4.75;;
10315;SDS011;5203;48.976;8.306;2022-07-06T09:15:35;5.45;;;4.95;;
10315;SDS011;5203;48.976;8.306;2022-07-06T09:18:04;7.18;;;4.82;;
10315;SDS011;5203;48.976;8.306;2022-07-06T09:20:29;5.30;;;4.90;;
10315;SDS011;5203;48.976;8.306;2022-07-06T09:22:59;5.35;;;4.90;;
10315;SDS011;5203;48.976;8.306;2022-07-06T09:25:26;5.43;;;4.93;;
10315;SDS011;5203;48.976;8.306;2022-07-06T09:27:52;5.82;;;5.32;;
10315;SDS011;5203;48.976;8.306;2022-07-06T09:30:20;5.72;;;5.22;;
10315;SDS011;5203;48.976;8.306;2022-07-06T09:32:48;5.97;;;5.47;;
10315;SDS011;5203;48.976;8.306;2022-07-06T09:35:58;5.90;;;5.43;;
10315;SDS011;5203;48.976;8.306;2022-07-06T09:40:38;5.97;;;5.47;;
10315;SDS011;5203;48.976;8.306;2022-07-06T09:45:37;5.93;;;5.53;;
10315;SDS011;5203;48.976;8.306;2022-07-06T09:48:46;6.47;;;5.88;;
10315;SDS011;5203;48.976;8.306;2022-07-06T09:53:21;6.40;;;5.43;;
10315;SDS011;5203;48.976;8.306;2022-07-06T09:55:53;5.57;;;5.20;;
10315;SDS011;5203;48.976;8.306;2022-07-06T09:58:20;8.57;;;5.97;;
10315;SDS011;5203;48.976;8.306;2022-07-06T10:00:47;5.63;;;5.28;;
10315;SDS011;5203;48.976;8.306;2022-07-06T10:03:15;5.93;;;5.43;;
10315;SDS011;5203;48.976;8.306;2022-07-06T10:05:42;6.35;;;5.95;;
10315;SDS011;5203;48.976;8.306;2022-07-06T10:08:11;10.88;;;6.82;;
10315;SDS011;5203;48.976;8.306;2022-07-06T10:10:40;6.25;;;5.50;;
10315;SDS011;5203;48.976;8.306;2022-07-06T10:13:07;6.32;;;5.90;;
10315;SDS011;5203;48.976;8.306;2022-07-06T10:15:34;6.40;;;5.90;;
10315;SDS011;5203;48.976;8.306;2022-07-06T10:18:02;5.40;;;4.97;;
10315;SDS011;5203;48.976;8.306;2022-07-06T10:20:31;6.50;;;4.95;;
10315;SDS011;5203;48.976;8.306;2022-07-06T10:23:01;6.15;;;5.65;;
10315;SDS011;5203;48.976;8.306;2022-07-06T10:25:28;6.22;;;5.22;;
10315;SDS011;5203;48.976;8.306;2022-07-06T10:27:55;5.88;;;5.38;;
10315;SDS011;5203;48.976;8.306;2022-07-06T10:30:21;6.22;;;5.72;;
10315;SDS011;5203;48.976;8.306;2022-07-06T10:32:49;5.97;;;5.57;;
10315;SDS011;5203;48.976;8.306;2022-07-06T10:35:17;6.50;;;6.03;;
10315;SDS011;5203;48.976;8.306;2022-07-06T10:37:44;6.22;;;5.82;;
10315;SDS011;5203;48.976;8.306;2022-07-06T10:40:14;6.55;;;6.05;;
10315;SDS011;5203;48.976;8.306;2022-07-06T10:42:59;6.07;;;5.68;;
10315;SDS011;5203;48.976;8.306;2022-07-06T10:53:21;5.95;;;5.55;;
10315;SDS011;5203;48.976;8.306;2022-07-06T10:55:52;5.45;;;5.15;;
10315;SDS011;5203;48.976;8.306;2022-07-06T10:58:39;6.63;;;5.57;;
10315;SDS011;5203;48.976;8.306;2022-07-06T11:01:18;6.20;;;5.80;;
10315;SDS011;5203;48.976;8.306;2022-07-06T11:03:49;5.85;;;5.45;;
10315;SDS011;5203;48.976;8.306;2022-07-06T11:06:19;5.97;;;5.57;;
10315;SDS011;5203;48.976;8.306;2022-07-06T11:16:37;6.13;;;5.68;;
10315;SDS011;5203;48.976;8.306;2022-07-06T11:19:14;6.03;;;5.60;;
10315;SDS011;5203;48.976;8.306;2022-07-06T11:24:35;8.45;;;5.50;;
10315;SDS011;5203;48.976;8.306;2022-07-06T11:27:03;5.97;;;5.47;;
10315;SDS011;5203;48.976;8.306;2022-07-06T11:29:32;6.30;;;5.70;;
10315;SDS011;5203;48.976;8.306;2022-07-06T11:32:00;6.30;;;5.72;;
10315;SDS011;5203;48.976;8.306;2022-07-06T11:34:35;6.55;;;6.15;;
10315;SDS011;5203;48.976;8.306;2022-07-06T11:37:05;6.20;;;5.80;;
10315;SDS011;5203;48.976;8.306;2022-07-06T11:39:33;6.47;;;6.07;;
10315;SDS011;5203;48.976;8.306;2022-07-06T11:42:10;6.53;;;5.93;;
10315;SDS011;5203;48.976;8.306;2022-07-06T11:44:37;6.13;;;5.72;;
10315;SDS011;5203;48.976;8.306;2022-07-06T11:47:04;6.47;;;6.07;;
10315;SDS011;5203;48.976;8.306;2022-07-06T11:49:31;6.10;;;5.57;;
10315;SDS011;5203;48.976;8.306;2022-07-06T11:51:59;6.25;;;5.75;;
10315;SDS011;5203;48.976;8.306;2022-07-06T11:54:25;5.93;;;5.43;;
10315;SDS011;5203;48.976;8.306;2022-07-06T11:56:53;5.90;;;5.60;;
10315;SDS011;5203;48.976;8.306;2022-07-06T11:59:26;5.68;;;5.38;;
10315;SDS011;5203;48.976;8.306;2022-07-06T12:02:10;6.10;;;5.63;;
10315;SDS011;5203;48.976;8.306;2022-07-06T12:04:38;6.15;;;5.70;;
10315;SDS011;5203;48.976;8.306;2022-07-06T12:07:06;6.22;;;5.70;;
10315;SDS011;5203;48.976;8.306;2022-07-06T12:09:35;6.65;;;6.25;;
10315;SDS011;5203;48.976;8.306;2022-07-06T12:12:02;6.80;;;6.40;;
10315;SDS011;5203;48.976;8.306;2022-07-06T12:14:33;6.53;;;6.13;;
10315;SDS011;5203;48.976;8.306;2022-07-06T12:17:06;7.03;;;6.63;;
10315;SDS011;5203;48.976;8.306;2022-07-06T12:19:33;7.15;;;6.57;;
10315;SDS011;5203;48.976;8.306;2022-07-06T12:22:01;6.15;;;5.70;;
10315;SDS011;5203;48.976;8.306;2022-07-06T12:24:28;6.65;;;6.13;;
10315;SDS011;5203;48.976;8.306;2022-07-06T12:26:58;6.25;;;5.85;;
10315;SDS011;5203;48.976;8.306;2022-07-06T12:29:34;6.60;;;6.15;;
10315;SDS011;5203;48.976;8.306;2022-07-06T12:31:59;6.05;;;5.60;;
10315;SDS011;5203;48.976;8.306;2022-07-06T12:34:27;6.82;;;6.18;;
10315;SDS011;5203;48.976;8.306;2022-07-06T12:37:02;6.35;;;5.82;;
10315;SDS011;5203;48.976;8.306;2022-07-06T12:39:32;6.30;;;5.90;;
10315;SDS011;5203;48.976;8.306;2022-07-06T12:42:05;6.53;;;6.15;;
10315;SDS011;5203;48.976;8.306;2022-07-06T12:44:31;6.03;;;5.72;;
10315;SDS011;5203;48.976;8.306;2022-07-06T12:47:04;6.65;;;6.18;;
10315;SDS011;5203;48.976;8.306;2022-07-06T12:49:31;6.35;;;5.95;;
10315;SDS011;5203;48.976;8.306;2022-07-06T12:52:02;6.82;;;6.30;;
10315;SDS011;5203;48.976;8.306;2022-07-06T12:57:18;6.43;;;6.13;;
10315;SDS011;5203;48.976;8.306;2022-07-06T13:02:26;6.80;;;6.30;;
10315;SDS011;5203;48.976;8.306;2022-07-06T13:04:57;7.25;;;6.78;;
10315;SDS011;5203;48.976;8.306;2022-07-06T13:07:25;6.82;;;6.43;;
10315;SDS011;5203;48.976;8.306;2022-07-06T13:09:52;7.05;;;6.50;;
10315;SDS011;5203;48.976;8.306;2022-07-06T13:12:19;6.78;;;6.35;;
10315;SDS011;5203;48.976;8.306;2022-07-06T13:14:45;6.63;;;6.13;;
10315;SDS011;5203;48.976;8.306;2022-07-06T13:17:11;5.82;;;5.53;;
10315;SDS011;5203;48.976;8.306;2022-07-06T13:19:37;13.18;;;7.25;;
10315;SDS011;5203;48.976;8.306;2022-07-06T13:22:03;6.63;;;6.30;;
10315;SDS011;5203;48.976;8.306;2022-07-06T13:24:29;5.90;;;5.60;;
10315;SDS011;5203;48.976;8.306;2022-07-06T13:26:55;6.00;;;5.68;;
10315;SDS011;5203;48.976;8.306;2022-07-06T13:29:22;5.78;;;5.47;;
10315;SDS011;5203;48.976;8.306;2022-07-06T13:31:48;5.70;;;5.40;;
10315;SDS011;5203;48.976;8.306;2022-07-06T13:34:14;5.63;;;5.32;;
10315;SDS011;5203;48.976;8.306;2022-07-06T13:36:40;5.60;;;5.25;;
10315;SDS011;5203;48.976;8.306;2022-07-06T13:39:06;5.80;;;5.50;;
10315;SDS011;5203;48.976;8.306;2022-07-06T13:41:32;5.78;;;5.47;;
10315;SDS011;5203;48.976;8.306;2022-07-06T13:43:59;5.90;;;5.50;;
10315;SDS011;5203;48.976;8.306;2022-07-06T13:46:29;6.00;;;5.70;;
10315;SDS011;5203;48.976;8.306;2022-07-06T13:48:56;6.07;;;5.68;;
10315;SDS011;5203;48.976;8.306;2022-07-06T13:51:25;6.00;;;5.70;;
10315;SDS011;5203;48.976;8.306;2022-07-06T13:53:53;5.95;;;5.60;;
10315;SDS011;5203;48.976;8.306;2022-07-06T13:56:19;5.38;;;5.07;;
10315;SDS011;5203;48.976;8.306;2022-07-06T13:58:45;6.18;;;5.55;;
10315;SDS011;5203;48.976;8.306;2022-07-06T14:01:11;5.55;;;5.15;;
10315;SDS011;5203;48.976;8.306;2022-07-06T14:03:38;5.43;;;5.13;;
10315;SDS011;5203;48.976;8.306;2022-07-06T14:06:04;5.03;;;4.78;;
10315;SDS011;5203;48.976;8.306;2022-07-06T14:08:34;5.18;;;4.88;;
10315;SDS011;5203;48.976;8.306;2022-07-06T14:11:00;5.32;;;5.03;;
10315;SDS011;5203;48.976;8.306;2022-07-06T14:13:27;5.75;;;5.22;;
10315;SDS011;5203;48.976;8.306;2022-07-06T14:15:53;5.15;;;4.78;;
10315;SDS011;5203;48.976;8.306;2022-07-06T14:18:19;4.93;;;4.50;;
10315;SDS011;5203;48.976;8.306;2022-07-06T14:20:46;4.88;;;4.57;;
10315;SDS011;5203;48.976;8.306;2022-07-06T14:23:12;5.47;;;5.18;;
10315;SDS011;5203;48.976;8.306;2022-07-06T14:25:39;5.60;;;5.20;;
10315;SDS011;5203;48.976;8.306;2022-07-06T14:28:05;5.32;;;5.03;;
10315;SDS011;5203;48.976;8.306;2022-07-06T14:30:31;5.20;;;4.85;;
10315;SDS011;5203;48.976;8.306;2022-07-06T14:33:02;5.15;;;4.75;;
10315;SDS011;5203;48.976;8.306;2022-07-06T14:35:32;5.15;;;4.85;;
10315;SDS011;5203;48.976;8.306;2022-07-06T14:38:09;5.72;;;4.85;;
10315;SDS011;5203;48.976;8.306;2022-07-06T14:40:35;5.65;;;5.30;;
10315;SDS011;5203;48.976;8.306;2022-07-06T14:43:01;5.13;;;4.90;;
10315;SDS011;5203;48.976;8.306;2022-07-06T14:45:28;5.38;;;5.07;;
10315;SDS011;5203;48.976;8.306;2022-07-06T14:47:55;5.50;;;5.20;;
10315;SDS011;5203;48.976;8.306;2022-07-06T14:50:21;5.50;;;5.10;;
10315;SDS011;5203;48.976;8.306;2022-07-06T14:52:53;5.60;;;5.30;;
10315;SDS011;5203;48.976;8.306;2022-07-06T14:55:19;5.47;;;5.18;;
10315;SDS011;5203;48.976;8.306;2022-07-06T14:57:47;5.57;;;5.18;;
10315;SDS011;5203;48.976;8.306;2022-07-06T15:00:13;5.75;;;5.30;;
10315;SDS011;5203;48.976;8.306;2022-07-06T15:02:40;5.43;;;5.03;;
10315;SDS011;5203;48.976;8.306;2022-07-06T15:05:07;5.03;;;4.65;;
10315;SDS011;5203;48.976;8.306;2022-07-06T15:07:33;5.63;;;5.18;;
10315;SDS011;5203;48.976;8.306;2022-07-06T15:09:59;5.60;;;5.20;;
10315;SDS011;5203;48.976;8.306;2022-07-06T15:12:25;5.70;;;5.30;;
10315;SDS011;5203;48.976;8.306;2022-07-06T15:14:50;5.32;;;5.03;;
10315;SDS011;5203;48.976;8.306;2022-07-06T15:17:16;5.45;;;5.05;;
10315;SDS011;5203;48.976;8.306;2022-07-06T15:19:42;5.30;;;5.00;;
10315;SDS011;5203;48.976;8.306;2022-07-06T15:22:09;5.40;;;5.10;;
10315;SDS011;5203;48.976;8.306;2022-07-06T15:24:35;5.50;;;5.05;;
10315;SDS011;5203;48.976;8.306;2022-07-06T15:27:02;5.47;;;5.13;;
10315;SDS011;5203;48.976;8.306;2022-07-06T15:29:31;5.50;;;5.20;;
10315;SDS011;5203;48.976;8.306;2022-07-06T15:31:57;5.32;;;5.03;;